Cheyenne Wells, Colorado
Current Conditions -  °F | °C
As of 12:53 AM on Friday 24 Oct 2014 (Local Time) from KITR Reporting Station
Clear Clear  
Wind Chill: 54°   Ceiling: Unl
Heat Index: 54°   Visibility: 10mi
Dew Point: 48°   Wind: 10mph
Humidity: 80%   Direction: 230°SW
Pressure: 30.1"   Gusts: NA
Location:  38.82°N, 102.35°W
Report Text: KITR 240653Z AUTO 23009KT 10SM CLR 12/09 A3010 RMK AO2 SLP153 T01220089 402390056
Loading
Personal Weather Stations






























Interactive Weather Map
Tropical Storm Tracking
New forecast layout! Learn more

10-Day Weather Forecast

Advertisements
Track Severe Weather on mobile